sensor_id;sensor_type;location;lat;lon;timestamp;pressure;altitude;pressure_sealevel;temperature;humidity
62976;BME280;49071;0.000;0.000;2022-11-15T06:51:10;100751.00;;;15.98;48.12
62976;BME280;49071;0.000;0.000;2022-11-15T06:54:10;100743.88;;;16.10;47.62
62976;BME280;49071;0.000;0.000;2022-11-15T06:57:11;100744.97;;;16.26;47.63
62976;BME280;49071;0.000;0.000;2022-11-15T07:00:11;100749.13;;;16.56;46.94
62976;BME280;49071;0.000;0.000;2022-11-15T07:03:11;100754.75;;;16.78;46.53
62976;BME280;49071;0.000;0.000;2022-11-15T07:06:12;100745.66;;;16.99;46.30
62976;BME280;49071;0.000;0.000;2022-11-15T07:09:12;100747.84;;;17.26;45.76
62976;BME280;49071;0.000;0.000;2022-11-15T07:12:12;100742.94;;;17.62;45.09
62976;BME280;49071;0.000;0.000;2022-11-15T07:15:12;100747.06;;;17.79;44.85
62976;BME280;49071;0.000;0.000;2022-11-15T07:18:13;100751.06;;;18.00;44.37
62976;BME280;49071;0.000;0.000;2022-11-15T07:21:13;100743.75;;;18.03;44.36
62976;BME280;49071;0.000;0.000;2022-11-15T07:24:13;100750.56;;;18.02;44.46
62976;BME280;49071;0.000;0.000;2022-11-15T07:27:13;100750.25;;;18.00;44.57
62976;BME280;49071;0.000;0.000;2022-11-15T07:30:14;100746.56;;;18.12;44.46
62976;BME280;49071;0.000;0.000;2022-11-15T07:33:14;100731.00;;;18.02;44.63
62976;BME280;49071;0.000;0.000;2022-11-15T07:36:14;100733.66;;;17.96;44.50
62976;BME280;49071;0.000;0.000;2022-11-15T07:39:14;100737.09;;;18.00;44.92
62976;BME280;49071;0.000;0.000;2022-11-15T07:42:15;100736.97;;;18.13;44.55
62976;BME280;49071;0.000;0.000;2022-11-15T07:45:33;100741.66;;;18.34;44.46
62976;BME280;49071;0.000;0.000;2022-11-15T07:48:35;100735.19;;;18.65;43.76
62976;BME280;49071;0.000;0.000;2022-11-15T07:51:35;100724.94;;;18.90;43.41
62976;BME280;49071;0.000;0.000;2022-11-15T07:54:35;100722.75;;;19.12;43.11
62976;BME280;49071;0.000;0.000;2022-11-15T07:57:36;100727.69;;;19.27;42.97
62976;BME280;49071;0.000;0.000;2022-11-15T08:00:36;100726.44;;;19.28;42.93
62976;BME280;49071;0.000;0.000;2022-11-15T08:03:36;100726.28;;;19.22;43.22
62976;BME280;49071;0.000;0.000;2022-11-15T08:06:37;100725.97;;;19.20;43.04
62976;BME280;49071;0.000;0.000;2022-11-15T08:09:37;100727.06;;;19.13;43.06
62976;BME280;49071;0.000;0.000;2022-11-15T08:12:37;100713.41;;;19.06;43.35
62976;BME280;49071;0.000;0.000;2022-11-15T08:15:38;100719.81;;;19.07;43.23
62976;BME280;49071;0.000;0.000;2022-11-15T08:18:38;100714.03;;;19.01;43.37
62976;BME280;49071;0.000;0.000;2022-11-15T08:21:38;100716.53;;;18.99;43.51
62976;BME280;49071;0.000;0.000;2022-11-15T08:24:39;100709.38;;;18.98;43.65
62976;BME280;49071;0.000;0.000;2022-11-15T08:27:39;100706.28;;;18.96;43.74
62976;BME280;49071;0.000;0.000;2022-11-15T08:30:40;100712.81;;;18.93;43.72
62976;BME280;49071;0.000;0.000;2022-11-15T08:33:41;100710.31;;;18.86;44.02
62976;BME280;49071;0.000;0.000;2022-11-15T08:36:42;100706.91;;;18.82;44.00
62976;BME280;49071;0.000;0.000;2022-11-15T08:39:42;100719.94;;;18.75;43.88
62976;BME280;49071;0.000;0.000;2022-11-15T08:42:42;100712.19;;;18.70;44.04
62976;BME280;49071;0.000;0.000;2022-11-15T08:45:45;100711.22;;;18.64;44.15
62976;BME280;49071;0.000;0.000;2022-11-15T08:48:45;100703.78;;;18.61;44.15
62976;BME280;49071;0.000;0.000;2022-11-15T08:51:46;100703.78;;;18.61;44.10
62976;BME280;49071;0.000;0.000;2022-11-15T08:54:46;100705.50;;;18.59;44.26
62976;BME280;49071;0.000;0.000;2022-11-15T08:57:46;100702.84;;;18.55;44.23
62976;BME280;49071;0.000;0.000;2022-11-15T09:00:46;100704.53;;;18.52;44.31
62976;BME280;49071;0.000;0.000;2022-11-15T09:03:47;100699.44;;;18.51;44.44
62976;BME280;49071;0.000;0.000;2022-11-15T09:06:47;100699.13;;;18.49;44.47
62976;BME280;49071;0.000;0.000;2022-11-15T09:09:47;100698.81;;;18.47;44.41
62976;BME280;49071;0.000;0.000;2022-11-15T09:12:47;100694.91;;;18.44;44.48
62976;BME280;49071;0.000;0.000;2022-11-15T09:15:48;100702.66;;;18.40;44.65
62976;BME280;49071;0.000;0.000;2022-11-15T09:18:48;100702.06;;;18.45;44.63
62976;BME280;49071;0.000;0.000;2022-11-15T09:21:48;100701.44;;;18.50;44.53
62976;BME280;49071;0.000;0.000;2022-11-15T09:24:49;100697.56;;;18.66;44.48
62976;BME280;49071;0.000;0.000;2022-11-15T09:27:49;100709.88;;;18.87;44.01
62976;BME280;49071;0.000;0.000;2022-11-15T09:30:49;100710.59;;;19.06;43.68
62976;BME280;49071;0.000;0.000;2022-11-15T09:33:49;100701.09;;;19.22;43.25
62976;BME280;49071;0.000;0.000;2022-11-15T09:36:50;100691.56;;;19.38;43.13
62976;BME280;49071;0.000;0.000;2022-11-15T09:39:50;100689.34;;;19.51;43.09
62976;BME280;49071;0.000;0.000;2022-11-15T09:49:15;100698.59;;;19.76;42.79
62976;BME280;49071;0.000;0.000;2022-11-15T09:52:16;100692.78;;;19.89;42.54
62976;BME280;49071;0.000;0.000;2022-11-15T09:55:17;100689.78;;;19.92;42.40
62976;BME280;49071;0.000;0.000;2022-11-15T09:58:24;100699.94;;;19.90;42.45
62976;BME280;49071;0.000;0.000;2022-11-15T10:01:34;100683.00;;;19.84;42.77
62976;BME280;49071;0.000;0.000;2022-11-15T10:04:36;100677.13;;;19.73;42.89
62976;BME280;49071;0.000;0.000;2022-11-15T10:10:41;100679.72;;;19.43;43.36
62976;BME280;49071;0.000;0.000;2022-11-15T10:13:44;100688.13;;;19.43;43.28
62976;BME280;49071;0.000;0.000;2022-11-15T10:20:02;100683.00;;;19.42;43.35
62976;BME280;49071;0.000;0.000;2022-11-15T10:23:06;100680.31;;;19.47;43.21
62976;BME280;49071;0.000;0.000;2022-11-15T10:26:07;100681.22;;;19.53;43.20
62976;BME280;49071;0.000;0.000;2022-11-15T10:29:09;100674.03;;;19.61;43.00
62976;BME280;49071;0.000;0.000;2022-11-15T10:32:13;100666.41;;;19.62;43.14
62976;BME280;49071;0.000;0.000;2022-11-15T10:35:25;100657.41;;;19.58;43.16
62976;BME280;49071;0.000;0.000;2022-11-15T10:38:25;100661.94;;;19.55;43.15
62976;BME280;49071;0.000;0.000;2022-11-15T10:44:27;100650.75;;;19.46;43.29
62976;BME280;49071;0.000;0.000;2022-11-15T10:47:29;100654.22;;;19.41;43.54
62976;BME280;49071;0.000;0.000;2022-11-15T10:50:31;100655.31;;;19.34;43.68
62976;BME280;49071;0.000;0.000;2022-11-15T10:53:33;100655.50;;;19.31;43.65
62976;BME280;49071;0.000;0.000;2022-11-15T10:56:39;100657.38;;;19.25;43.80
62976;BME280;49071;0.000;0.000;2022-11-15T10:59:42;100653.50;;;19.22;43.68
62976;BME280;49071;0.000;0.000;2022-11-15T11:02:45;100649.75;;;19.16;43.95
62976;BME280;49071;0.000;0.000;2022-11-15T11:05:47;100634.41;;;19.11;44.00
62976;BME280;49071;0.000;0.000;2022-11-15T11:08:54;100634.56;;;19.08;44.09
62976;BME280;49071;0.000;0.000;2022-11-15T11:11:55;100632.09;;;19.01;44.24
62976;BME280;49071;0.000;0.000;2022-11-15T11:14:55;100629.47;;;18.97;44.36
62976;BME280;49071;0.000;0.000;2022-11-15T11:18:10;100621.69;;;18.92;44.49
62976;BME280;49071;0.000;0.000;2022-11-15T11:21:58;100621.84;;;18.88;44.48
62976;BME280;49071;0.000;0.000;2022-11-15T11:24:52;100614.88;;;18.84;44.57
62976;BME280;49071;0.000;0.000;2022-11-15T11:31:18;100615.34;;;18.73;44.79
62976;BME280;49071;0.000;0.000;2022-11-15T11:34:33;100615.47;;;18.69;44.75
62976;BME280;49071;0.000;0.000;2022-11-15T11:37:52;100606.78;;;18.67;45.06
62976;BME280;49071;0.000;0.000;2022-11-15T11:50:23;100585.72;;;19.09;44.22
62976;BME280;49071;0.000;0.000;2022-11-15T11:56:52;100584.19;;;19.41;43.74
62976;BME280;49071;0.000;0.000;2022-11-15T11:59:55;100578.19;;;19.57;43.54
62976;BME280;49071;0.000;0.000;2022-11-15T12:06:02;100571.47;;;19.88;43.15
62976;BME280;49071;0.000;0.000;2022-11-15T12:12:17;100561.81;;;19.89;43.14
62976;BME280;49071;0.000;0.000;2022-11-15T12:15:23;100559.97;;;19.86;43.00
62976;BME280;49071;0.000;0.000;2022-11-15T12:18:24;100563.13;;;19.79;43.06
62976;BME280;49071;0.000;0.000;2022-11-15T12:21:27;100559.44;;;19.73;43.23
62976;BME280;49071;0.000;0.000;2022-11-15T12:24:34;100565.34;;;19.66;43.51
62976;BME280;49071;0.000;0.000;2022-11-15T12:27:41;100556.03;;;19.59;43.45
62976;BME280;49071;0.000;0.000;2022-11-15T12:30:45;100552.06;;;19.51;43.66
62976;BME280;49071;0.000;0.000;2022-11-15T12:33:47;100548.84;;;19.44;43.90
62976;BME280;49071;0.000;0.000;2022-11-15T12:36:48;100541.88;;;19.39;43.81
62976;BME280;49071;0.000;0.000;2022-11-15T12:52:27;100514.94;;;19.08;44.43
62976;BME280;49071;0.000;0.000;2022-11-15T12:55:31;100508.91;;;19.01;44.49
62976;BME280;49071;0.000;0.000;2022-11-15T12:58:41;100515.16;;;18.95;44.54
62976;BME280;49071;0.000;0.000;2022-11-15T13:04:46;100516.16;;;18.83;44.73
62976;BME280;49071;0.000;0.000;2022-11-15T13:10:47;100505.41;;;18.72;44.99
62976;BME280;49071;0.000;0.000;2022-11-15T13:13:47;100509.34;;;18.66;45.02
62976;BME280;49071;0.000;0.000;2022-11-15T13:16:47;100502.38;;;18.61;45.17
62976;BME280;49071;0.000;0.000;2022-11-15T13:19:50;100501.75;;;18.57;45.07
62976;BME280;49071;0.000;0.000;2022-11-15T13:26:08;100492.44;;;18.51;45.37
62976;BME280;49071;0.000;0.000;2022-11-15T13:29:16;100489.31;;;18.58;45.22
62976;BME280;49071;0.000;0.000;2022-11-15T13:32:17;100491.16;;;18.70;45.18
62976;BME280;49071;0.000;0.000;2022-11-15T13:35:22;100495.16;;;18.88;44.76
62976;BME280;49071;0.000;0.000;2022-11-15T13:38:36;100491.66;;;19.02;44.65
62976;BME280;49071;0.000;0.000;2022-11-15T13:41:49;100489.69;;;19.17;44.31
62976;BME280;49071;0.000;0.000;2022-11-15T13:44:57;100487.38;;;19.40;43.98
62976;BME280;49071;0.000;0.000;2022-11-15T13:47:58;100476.81;;;19.59;43.50
62976;BME280;49071;0.000;0.000;2022-11-15T13:50:58;100480.97;;;19.73;43.49
62976;BME280;49071;0.000;0.000;2022-11-15T13:54:05;100476.72;;;19.77;43.42
62976;BME280;49071;0.000;0.000;2022-11-15T13:57:21;100473.91;;;19.77;43.61
62976;BME280;49071;0.000;0.000;2022-11-15T14:00:26;100474.00;;;19.68;43.53
62976;BME280;49071;0.000;0.000;2022-11-15T14:03:28;100472.78;;;19.60;43.80
62976;BME280;49071;0.000;0.000;2022-11-15T14:06:29;100478.00;;;19.52;43.88
62976;BME280;49071;0.000;0.000;2022-11-15T14:09:37;100475.53;;;19.45;44.12
62976;BME280;49071;0.000;0.000;2022-11-15T14:12:37;100477.13;;;19.37;44.27
62976;BME280;49071;0.000;0.000;2022-11-15T14:15:38;100481.06;;;19.30;44.37
62976;BME280;49071;0.000;0.000;2022-11-15T14:18:46;100475.34;;;19.25;44.64
62976;BME280;49071;0.000;0.000;2022-11-15T14:25:18;100474.34;;;19.37;44.33
62976;BME280;49071;0.000;0.000;2022-11-15T14:31:22;100471.34;;;19.65;43.87
62976;BME280;49071;0.000;0.000;2022-11-15T14:34:22;100469.28;;;19.74;43.82
62976;BME280;49071;0.000;0.000;2022-11-15T14:37:24;100473.47;;;19.94;43.51
62976;BME280;49071;0.000;0.000;2022-11-15T14:40:24;100461.75;;;19.95;43.43
62976;BME280;49071;0.000;0.000;2022-11-15T14:43:25;100460.69;;;19.93;43.50
62976;BME280;49071;0.000;0.000;2022-11-15T14:46:25;100460.91;;;19.89;43.52
62976;BME280;49071;0.000;0.000;2022-11-15T14:49:25;100466.88;;;19.82;43.61
62976;BME280;49071;0.000;0.000;2022-11-15T14:52:30;100474.38;;;19.76;43.82
62976;BME280;49071;0.000;0.000;2022-11-15T14:55:35;100471.81;;;19.63;44.12
62976;BME280;49071;0.000;0.000;2022-11-15T14:58:36;100461.28;;;19.58;44.28
62976;BME280;49071;0.000;0.000;2022-11-15T15:01:36;100460.75;;;19.45;44.43
62976;BME280;49071;0.000;0.000;2022-11-15T15:04:36;100461.91;;;19.38;44.49
62976;BME280;49071;0.000;0.000;2022-11-15T15:07:36;100456.16;;;19.32;44.88
62976;BME280;49071;0.000;0.000;2022-11-15T15:10:41;100453.25;;;19.27;44.87
62976;BME280;49071;0.000;0.000;2022-11-15T15:13:41;100454.38;;;19.20;44.95
62976;BME280;49071;0.000;0.000;2022-11-15T15:16:42;100447.91;;;19.14;45.01
62976;BME280;49071;0.000;0.000;2022-11-15T15:19:42;100446.53;;;19.09;45.19
62976;BME280;49071;0.000;0.000;2022-11-15T15:22:43;100441.28;;;19.02;45.22
62976;BME280;49071;0.000;0.000;2022-11-15T15:25:44;100445.50;;;18.97;45.30
62976;BME280;49071;0.000;0.000;2022-11-15T15:28:45;100450.03;;;18.95;45.30
62976;BME280;49071;0.000;0.000;2022-11-15T15:31:45;100449.09;;;18.89;45.51
62976;BME280;49071;0.000;0.000;2022-11-15T15:34:45;100447.72;;;18.84;45.23
62976;BME280;49071;0.000;0.000;2022-11-15T15:37:46;100453.00;;;18.82;45.70
62976;BME280;49071;0.000;0.000;2022-11-15T15:40:47;100444.81;;;18.79;45.66
62976;BME280;49071;0.000;0.000;2022-11-15T15:43:47;100451.34;;;18.75;45.69
62976;BME280;49071;0.000;0.000;2022-11-15T15:46:47;100445.44;;;18.73;45.75
62976;BME280;49071;0.000;0.000;2022-11-15T15:49:48;100438.13;;;18.76;45.63
62976;BME280;49071;0.000;0.000;2022-11-15T15:52:49;100440.28;;;18.81;45.47
62976;BME280;49071;0.000;0.000;2022-11-15T15:55:50;100436.38;;;18.88;45.34
62976;BME280;49071;0.000;0.000;2022-11-15T15:58:50;100434.09;;;19.01;45.10
62976;BME280;49071;0.000;0.000;2022-11-15T16:01:52;100433.94;;;19.05;45.21
62976;BME280;49071;0.000;0.000;2022-11-15T16:04:52;100432.69;;;19.06;45.28
62976;BME280;49071;0.000;0.000;2022-11-15T16:07:52;100427.84;;;19.06;45.19
62976;BME280;49071;0.000;0.000;2022-11-15T16:10:53;100425.56;;;19.05;45.20
62976;BME280;49071;0.000;0.000;2022-11-15T16:13:53;100418.09;;;19.02;45.27
62976;BME280;49071;0.000;0.000;2022-11-15T16:16:53;100429.00;;;19.00;45.22
62976;BME280;49071;0.000;0.000;2022-11-15T16:19:53;100428.41;;;18.95;45.43
62976;BME280;49071;0.000;0.000;2022-11-15T16:22:54;100434.47;;;18.94;45.35
62976;BME280;49071;0.000;0.000;2022-11-15T16:25:54;100431.81;;;19.00;45.20
62976;BME280;49071;0.000;0.000;2022-11-15T16:28:55;100438.59;;;19.08;45.05
62976;BME280;49071;0.000;0.000;2022-11-15T16:31:55;100434.31;;;19.22;44.82
62976;BME280;49071;0.000;0.000;2022-11-15T16:34:56;100440.97;;;19.24;44.73
62976;BME280;49071;0.000;0.000;2022-11-15T16:37:58;100440.03;;;19.27;44.87
62976;BME280;49071;0.000;0.000;2022-11-15T16:40:58;100437.72;;;19.26;44.72
62976;BME280;49071;0.000;0.000;2022-11-15T16:43:58;100427.44;;;19.23;44.81
62976;BME280;49071;0.000;0.000;2022-11-15T16:46:58;100440.38;;;19.20;44.96
62976;BME280;49071;0.000;0.000;2022-11-15T16:49:59;100438.22;;;19.15;45.05
62976;BME280;49071;0.000;0.000;2022-11-15T16:52:59;100449.31;;;19.09;44.95
62976;BME280;49071;0.000;0.000;2022-11-15T16:55:59;100446.38;;;19.04;45.18
62976;BME280;49071;0.000;0.000;2022-11-15T16:59:00;100446.03;;;19.11;45.00
62976;BME280;49071;0.000;0.000;2022-11-15T17:02:00;100443.19;;;19.20;44.86
62976;BME280;49071;0.000;0.000;2022-11-15T17:05:01;100443.59;;;19.28;44.77
62976;BME280;49071;0.000;0.000;2022-11-15T17:08:01;100438.84;;;19.43;44.54
62976;BME280;49071;0.000;0.000;2022-11-15T17:11:04;100442.41;;;19.68;44.02
62976;BME280;49071;0.000;0.000;2022-11-15T17:14:05;100442.53;;;19.88;43.68
62976;BME280;49071;0.000;0.000;2022-11-15T17:17:05;100443.03;;;20.01;43.66
62976;BME280;49071;0.000;0.000;2022-11-15T17:20:06;100439.06;;;20.08;43.91
62976;BME280;49071;0.000;0.000;2022-11-15T17:23:12;100438.28;;;20.08;43.67
62976;BME280;49071;0.000;0.000;2022-11-15T17:26:13;100435.69;;;20.04;44.10
62976;BME280;49071;0.000;0.000;2022-11-15T17:29:14;100435.09;;;20.00;43.94
62976;BME280;49071;0.000;0.000;2022-11-15T17:32:14;100433.63;;;19.90;44.23
62976;BME280;49071;0.000;0.000;2022-11-15T17:35:15;100436.66;;;19.86;44.47
62976;BME280;49071;0.000;0.000;2022-11-15T17:38:15;100437.03;;;19.79;44.51
62976;BME280;49071;0.000;0.000;2022-11-15T17:41:15;100437.66;;;19.74;44.71
62976;BME280;49071;0.000;0.000;2022-11-15T17:44:15;100446.59;;;19.63;44.94
62976;BME280;49071;0.000;0.000;2022-11-15T17:47:16;100438.56;;;19.56;45.00
62976;BME280;49071;0.000;0.000;2022-11-15T17:50:16;100438.47;;;19.50;45.20
62976;BME280;49071;0.000;0.000;2022-11-15T17:53:16;100436.78;;;19.44;45.33
62976;BME280;49071;0.000;0.000;2022-11-15T17:56:17;100430.59;;;19.39;45.38
62976;BME280;49071;0.000;0.000;2022-11-15T17:59:18;100426.13;;;19.33;45.55
62976;BME280;49071;0.000;0.000;2022-11-15T18:02:18;100418.38;;;19.28;45.60
62976;BME280;49071;0.000;0.000;2022-11-15T18:05:19;100413.44;;;19.23;45.68
62976;BME280;49071;0.000;0.000;2022-11-15T18:08:19;100405.25;;;19.19;45.65
62976;BME280;49071;0.000;0.000;2022-11-15T18:11:21;100402.31;;;19.13;45.90
62976;BME280;49071;0.000;0.000;2022-11-15T18:14:22;100402.50;;;19.10;45.75
62976;BME280;49071;0.000;0.000;2022-11-15T18:17:24;100390.13;;;19.02;45.83
62976;BME280;49071;0.000;0.000;2022-11-15T18:20:24;100388.75;;;18.97;45.97
62976;BME280;49071;0.000;0.000;2022-11-15T18:23:24;100391.25;;;18.95;46.03
62976;BME280;49071;0.000;0.000;2022-11-15T18:26:25;100384.53;;;19.02;45.99
62976;BME280;49071;0.000;0.000;2022-11-15T18:29:26;100378.84;;;19.11;45.69
62976;BME280;49071;0.000;0.000;2022-11-15T18:32:27;100376.28;;;19.22;45.54
62976;BME280;49071;0.000;0.000;2022-11-15T18:35:27;100367.91;;;19.37;45.58
62976;BME280;49071;0.000;0.000;2022-11-15T18:38:35;100371.69;;;19.34;45.57
62976;BME280;49071;0.000;0.000;2022-11-15T18:41:35;100369.75;;;19.40;45.73
62976;BME280;49071;0.000;0.000;2022-11-15T18:44:35;100371.00;;;19.39;45.72
62976;BME280;49071;0.000;0.000;2022-11-15T18:47:35;100370.84;;;19.43;45.52
62976;BME280;49071;0.000;0.000;2022-11-15T18:50:36;100366.19;;;19.39;45.63
62976;BME280;49071;0.000;0.000;2022-11-15T18:53:37;100368.22;;;19.39;45.75
62976;BME280;49071;0.000;0.000;2022-11-15T18:56:38;100371.47;;;19.37;45.76
62976;BME280;49071;0.000;0.000;2022-11-15T18:59:38;100369.47;;;19.38;45.82
62976;BME280;49071;0.000;0.000;2022-11-15T19:02:38;100360.84;;;19.27;45.95
62976;BME280;49071;0.000;0.000;2022-11-15T19:05:38;100364.78;;;19.20;46.02
62976;BME280;49071;0.000;0.000;2022-11-15T19:08:39;100369.63;;;19.19;45.90
62976;BME280;49071;0.000;0.000;2022-11-15T19:11:40;100376.94;;;19.17;46.08
62976;BME280;49071;0.000;0.000;2022-11-15T19:14:41;100366.22;;;19.15;46.37
62976;BME280;49071;0.000;0.000;2022-11-15T19:17:41;100367.16;;;19.12;46.54
62976;BME280;49071;0.000;0.000;2022-11-15T19:20:42;100367.06;;;19.07;46.37
62976;BME280;49071;0.000;0.000;2022-11-15T19:23:42;100352.94;;;19.01;46.73
62976;BME280;49071;0.000;0.000;2022-11-15T19:26:42;100351.19;;;19.04;46.48
62976;BME280;49071;0.000;0.000;2022-11-15T19:29:43;100347.94;;;19.05;46.47
62976;BME280;49071;0.000;0.000;2022-11-15T19:32:44;100346.09;;;19.02;46.62
62976;BME280;49071;0.000;0.000;2022-11-15T19:35:44;100344.44;;;18.95;46.54
62976;BME280;49071;0.000;0.000;2022-11-15T19:38:44;100339.91;;;18.98;46.77
62976;BME280;49071;0.000;0.000;2022-11-15T19:41:45;100345.13;;;19.05;46.59
62976;BME280;49071;0.000;0.000;2022-11-15T19:44:45;100338.22;;;19.15;46.61
62976;BME280;49071;0.000;0.000;2022-11-15T19:47:46;100345.50;;;19.37;46.29
62976;BME280;49071;0.000;0.000;2022-11-15T19:50:46;100340.50;;;19.56;45.96
62976;BME280;49071;0.000;0.000;2022-11-15T19:53:46;100343.94;;;19.90;45.25
62976;BME280;49071;0.000;0.000;2022-11-15T19:56:47;100338.31;;;20.04;44.98
62976;BME280;49071;0.000;0.000;2022-11-15T19:59:47;100342.16;;;20.22;44.73
62976;BME280;49071;0.000;0.000;2022-11-15T20:02:47;100346.19;;;20.36;44.52
62976;BME280;49071;0.000;0.000;2022-11-15T20:05:48;100343.47;;;20.41;44.37
62976;BME280;49071;0.000;0.000;2022-11-15T20:08:48;100337.75;;;20.51;44.37
62976;BME280;49071;0.000;0.000;2022-11-15T20:11:49;100327.09;;;20.55;44.01
62976;BME280;49071;0.000;0.000;2022-11-15T20:14:49;100327.41;;;20.57;43.90
62976;BME280;49071;0.000;0.000;2022-11-15T20:17:49;100330.31;;;20.48;44.62
62976;BME280;49071;0.000;0.000;2022-11-15T20:20:49;100322.09;;;20.59;44.27
62976;BME280;49071;0.000;0.000;2022-11-15T20:23:50;100319.00;;;20.57;44.52
62976;BME280;49071;0.000;0.000;2022-11-15T20:26:50;100314.81;;;20.52;44.60
62976;BME280;49071;0.000;0.000;2022-11-15T20:29:50;100311.16;;;20.46;44.72
62976;BME280;49071;0.000;0.000;2022-11-15T20:32:53;100311.09;;;20.40;44.74
62976;BME280;49071;0.000;0.000;2022-11-15T20:35:53;100317.56;;;20.32;45.11
62976;BME280;49071;0.000;0.000;2022-11-15T20:38:57;100314.13;;;20.22;45.36
62976;BME280;49071;0.000;0.000;2022-11-15T20:41:58;100316.66;;;20.05;45.77
62976;BME280;49071;0.000;0.000;2022-11-15T20:44:58;100318.50;;;19.93;45.64
